<?xml version="1.0" encoding="UTF-8" standalone="no" ?>
<gpx xmlns="http://www.topografix.com/GPX/1/1" xmlns:xsi="http://www.w3.org/2001/XMLSchema-instance" xsi:schemaLocation="http://www.topografix.com/GPX/1/1 http://www.topografix.com/GPX/1/1/gpx.xsd" version="1.1" creator="VisuGPX - https://www.visugpx.com">
  <metadata>
    <name>Rando sentier Denecour Fontainebleau</name>
    <desc><![CDATA[Rando de 22 km depuis la gare arrêt en forêt et celle de Fontainebleau-Avon.  Principal intérêt : les sentiers Denecour-Colinet. 
Difficulté : moyenne
[url]http://trekkingzone.wordpress.com[/url]]]></desc>
  </metadata>
  <trk>
    <name><![CDATA[12 févr. 2017 à 10:01:16]]></name>
    <cmt><![CDATA[12 févr. 2017 à 10:01:16]]></cmt>
    <trkseg>
      <trkpt lat="48.44795" lon="2.7296">
        <ele>73</ele>
        <time>2017-02-12T09:01:20Z</time>
      </trkpt>
      <trkpt lat="48.44811" lon="2.72936">
        <ele>79</ele>
        <time>2017-02-12T09:01:43Z</time>
      </trkpt>
      <trkpt lat="48.44828" lon="2.72913">
        <ele>81</ele>
        <time>2017-02-12T09:01:57Z</time>
      </trkpt>
      <trkpt lat="48.44868" lon="2.72878">
        <ele>82</ele>
        <time>2017-02-12T09:02:36Z</time>
      </trkpt>
      <trkpt lat="48.44885" lon="2.72856">
        <ele>82</ele>
        <time>2017-02-12T09:02:55Z</time>
      </trkpt>
      <trkpt lat="48.4487" lon="2.72828">
        <ele>82</ele>
        <time>2017-02-12T09:03:16Z</time>
      </trkpt>
      <trkpt lat="48.44831" lon="2.7279">
        <ele>82</ele>
        <time>2017-02-12T09:03:54Z</time>
      </trkpt>
      <trkpt lat="48.44789" lon="2.72763">
        <ele>84</ele>
        <time>2017-02-12T09:04:31Z</time>
      </trkpt>
      <trkpt lat="48.44747" lon="2.72734">
        <ele>87</ele>
        <time>2017-02-12T09:05:08Z</time>
      </trkpt>
      <trkpt lat="48.44726" lon="2.72719">
        <ele>88</ele>
        <time>2017-02-12T09:05:24Z</time>
      </trkpt>
      <trkpt lat="48.44709" lon="2.72694">
        <ele>89</ele>
        <time>2017-02-12T09:05:44Z</time>
      </trkpt>
      <trkpt lat="48.44667" lon="2.72664">
        <ele>90</ele>
        <time>2017-02-12T09:06:18Z</time>
      </trkpt>
      <trkpt lat="48.44627" lon="2.72631">
        <ele>91</ele>
        <time>2017-02-12T09:06:57Z</time>
      </trkpt>
      <trkpt lat="48.44606" lon="2.72614">
        <ele>92</ele>
        <time>2017-02-12T09:07:15Z</time>
      </trkpt>
      <trkpt lat="48.44606" lon="2.7258">
        <ele>92</ele>
        <time>2017-02-12T09:07:37Z</time>
      </trkpt>
      <trkpt lat="48.44634" lon="2.72524">
        <ele>90</ele>
        <time>2017-02-12T09:08:12Z</time>
      </trkpt>
      <trkpt lat="48.44664" lon="2.72473">
        <ele>87</ele>
        <time>2017-02-12T09:08:46Z</time>
      </trkpt>
      <trkpt lat="48.44695" lon="2.7242">
        <ele>86</ele>
        <time>2017-02-12T09:09:25Z</time>
      </trkpt>
      <trkpt lat="48.44722" lon="2.72364">
        <ele>86</ele>
        <time>2017-02-12T09:10:01Z</time>
      </trkpt>
      <trkpt lat="48.44751" lon="2.72307">
        <ele>87</ele>
        <time>2017-02-12T09:10:37Z</time>
      </trkpt>
      <trkpt lat="48.44781" lon="2.72254">
        <ele>87</ele>
        <time>2017-02-12T09:11:11Z</time>
      </trkpt>
      <trkpt lat="48.44795" lon="2.72228">
        <ele>87</ele>
        <time>2017-02-12T09:11:30Z</time>
      </trkpt>
      <trkpt lat="48.44797" lon="2.72193">
        <ele>88</ele>
        <time>2017-02-12T09:11:55Z</time>
      </trkpt>
      <trkpt lat="48.44778" lon="2.72172">
        <ele>88</ele>
        <time>2017-02-12T09:12:18Z</time>
      </trkpt>
      <trkpt lat="48.44734" lon="2.7215">
        <ele>90</ele>
        <time>2017-02-12T09:12:55Z</time>
      </trkpt>
      <trkpt lat="48.44716" lon="2.72129">
        <ele>90</ele>
        <time>2017-02-12T09:13:12Z</time>
      </trkpt>
      <trkpt lat="48.44706" lon="2.72098">
        <ele>90</ele>
        <time>2017-02-12T09:13:32Z</time>
      </trkpt>
      <trkpt lat="48.44708" lon="2.72028">
        <ele>90</ele>
        <time>2017-02-12T09:14:08Z</time>
      </trkpt>
      <trkpt lat="48.4471" lon="2.71992">
        <ele>91</ele>
        <time>2017-02-12T09:15:19Z</time>
      </trkpt>
      <trkpt lat="48.44712" lon="2.71957">
        <ele>89</ele>
        <time>2017-02-12T09:16:45Z</time>
      </trkpt>
      <trkpt lat="48.44699" lon="2.71927">
        <ele>89</ele>
        <time>2017-02-12T09:17:02Z</time>
      </trkpt>
      <trkpt lat="48.44694" lon="2.71894">
        <ele>89</ele>
        <time>2017-02-12T09:17:25Z</time>
      </trkpt>
      <trkpt lat="48.44715" lon="2.7188">
        <ele>88</ele>
        <time>2017-02-12T09:24:10Z</time>
      </trkpt>
      <trkpt lat="48.44733" lon="2.71904">
        <ele>89</ele>
        <time>2017-02-12T09:24:27Z</time>
      </trkpt>
      <trkpt lat="48.44755" lon="2.71912">
        <ele>90</ele>
        <time>2017-02-12T09:24:49Z</time>
      </trkpt>
      <trkpt lat="48.44775" lon="2.71896">
        <ele>90</ele>
        <time>2017-02-12T09:25:24Z</time>
      </trkpt>
      <trkpt lat="48.44778" lon="2.71861">
        <ele>91</ele>
        <time>2017-02-12T09:25:46Z</time>
      </trkpt>
      <trkpt lat="48.44769" lon="2.7183">
        <ele>91</ele>
        <time>2017-02-12T09:26:15Z</time>
      </trkpt>
      <trkpt lat="48.4475" lon="2.71811">
        <ele>91</ele>
        <time>2017-02-12T09:26:41Z</time>
      </trkpt>
      <trkpt lat="48.4475" lon="2.71776">
        <ele>91</ele>
        <time>2017-02-12T09:27:01Z</time>
      </trkpt>
      <trkpt lat="48.44756" lon="2.71741">
        <ele>91</ele>
        <time>2017-02-12T09:27:24Z</time>
      </trkpt>
      <trkpt lat="48.44749" lon="2.71674">
        <ele>90</ele>
        <time>2017-02-12T09:28:08Z</time>
      </trkpt>
      <trkpt lat="48.44772" lon="2.71613">
        <ele>90</ele>
        <time>2017-02-12T09:28:48Z</time>
      </trkpt>
      <trkpt lat="48.44799" lon="2.71558">
        <ele>90</ele>
        <time>2017-02-12T09:29:30Z</time>
      </trkpt>
      <trkpt lat="48.44813" lon="2.71493">
        <ele>89</ele>
        <time>2017-02-12T09:30:14Z</time>
      </trkpt>
      <trkpt lat="48.44822" lon="2.71424">
        <ele>90</ele>
        <time>2017-02-12T09:30:55Z</time>
      </trkpt>
      <trkpt lat="48.44842" lon="2.7136">
        <ele>90</ele>
        <time>2017-02-12T09:31:34Z</time>
      </trkpt>
      <trkpt lat="48.44858" lon="2.71294">
        <ele>89</ele>
        <time>2017-02-12T09:32:13Z</time>
      </trkpt>
      <trkpt lat="48.44868" lon="2.71263">
        <ele>89</ele>
        <time>2017-02-12T09:32:33Z</time>
      </trkpt>
      <trkpt lat="48.44854" lon="2.71235">
        <ele>88</ele>
        <time>2017-02-12T09:33:25Z</time>
      </trkpt>
      <trkpt lat="48.44834" lon="2.71218">
        <ele>88</ele>
        <time>2017-02-12T09:33:59Z</time>
      </trkpt>
      <trkpt lat="48.4479" lon="2.71242">
        <ele>88</ele>
        <time>2017-02-12T09:34:53Z</time>
      </trkpt>
      <trkpt lat="48.44746" lon="2.7126">
        <ele>88</ele>
        <time>2017-02-12T09:35:34Z</time>
      </trkpt>
      <trkpt lat="48.447" lon="2.71243">
        <ele>89</ele>
        <time>2017-02-12T09:36:12Z</time>
      </trkpt>
      <trkpt lat="48.44656" lon="2.71227">
        <ele>89</ele>
        <time>2017-02-12T09:36:54Z</time>
      </trkpt>
      <trkpt lat="48.44633" lon="2.71224">
        <ele>89</ele>
        <time>2017-02-12T09:37:11Z</time>
      </trkpt>
      <trkpt lat="48.44611" lon="2.71213">
        <ele>89</ele>
        <time>2017-02-12T09:37:31Z</time>
      </trkpt>
      <trkpt lat="48.44609" lon="2.71177">
        <ele>89</ele>
        <time>2017-02-12T09:37:50Z</time>
      </trkpt>
      <trkpt lat="48.44621" lon="2.71148">
        <ele>89</ele>
        <time>2017-02-12T09:38:09Z</time>
      </trkpt>
      <trkpt lat="48.44638" lon="2.71124">
        <ele>88</ele>
        <time>2017-02-12T09:38:30Z</time>
      </trkpt>
      <trkpt lat="48.44641" lon="2.71089">
        <ele>88</ele>
        <time>2017-02-12T09:38:52Z</time>
      </trkpt>
      <trkpt lat="48.44635" lon="2.71056">
        <ele>87</ele>
        <time>2017-02-12T09:39:11Z</time>
      </trkpt>
      <trkpt lat="48.44636" lon="2.71022">
        <ele>87</ele>
        <time>2017-02-12T09:39:29Z</time>
      </trkpt>
      <trkpt lat="48.44655" lon="2.70959">
        <ele>86</ele>
        <time>2017-02-12T09:40:05Z</time>
      </trkpt>
      <trkpt lat="48.44671" lon="2.70896">
        <ele>85</ele>
        <time>2017-02-12T09:40:46Z</time>
      </trkpt>
      <trkpt lat="48.44673" lon="2.7086">
        <ele>85</ele>
        <time>2017-02-12T09:41:04Z</time>
      </trkpt>
      <trkpt lat="48.44652" lon="2.70798">
        <ele>85</ele>
        <time>2017-02-12T09:41:41Z</time>
      </trkpt>
      <trkpt lat="48.44631" lon="2.70735">
        <ele>85</ele>
        <time>2017-02-12T09:42:35Z</time>
      </trkpt>
      <trkpt lat="48.44627" lon="2.70701">
        <ele>85</ele>
        <time>2017-02-12T09:42:54Z</time>
      </trkpt>
      <trkpt lat="48.44606" lon="2.70685">
        <ele>85</ele>
        <time>2017-02-12T09:43:15Z</time>
      </trkpt>
      <trkpt lat="48.44583" lon="2.70685">
        <ele>85</ele>
        <time>2017-02-12T09:43:29Z</time>
      </trkpt>
      <trkpt lat="48.4454" lon="2.70662">
        <ele>85</ele>
        <time>2017-02-12T09:44:08Z</time>
      </trkpt>
      <trkpt lat="48.44519" lon="2.70647">
        <ele>85</ele>
        <time>2017-02-12T09:44:30Z</time>
      </trkpt>
      <trkpt lat="48.44497" lon="2.70649">
        <ele>85</ele>
        <time>2017-02-12T09:44:47Z</time>
      </trkpt>
      <trkpt lat="48.4448" lon="2.70624">
        <ele>85</ele>
        <time>2017-02-12T09:45:07Z</time>
      </trkpt>
      <trkpt lat="48.44455" lon="2.70564">
        <ele>86</ele>
        <time>2017-02-12T09:45:46Z</time>
      </trkpt>
      <trkpt lat="48.44441" lon="2.70537">
        <ele>86</ele>
        <time>2017-02-12T09:46:05Z</time>
      </trkpt>
      <trkpt lat="48.44423" lon="2.70517">
        <ele>86</ele>
        <time>2017-02-12T09:46:21Z</time>
      </trkpt>
      <trkpt lat="48.44408" lon="2.7049">
        <ele>85</ele>
        <time>2017-02-12T09:46:42Z</time>
      </trkpt>
      <trkpt lat="48.44369" lon="2.70449">
        <ele>85</ele>
        <time>2017-02-12T09:47:22Z</time>
      </trkpt>
      <trkpt lat="48.44345" lon="2.70389">
        <ele>86</ele>
        <time>2017-02-12T09:47:58Z</time>
      </trkpt>
      <trkpt lat="48.44323" lon="2.70328">
        <ele>87</ele>
        <time>2017-02-12T09:48:39Z</time>
      </trkpt>
      <trkpt lat="48.44321" lon="2.70293">
        <ele>87</ele>
        <time>2017-02-12T09:48:54Z</time>
      </trkpt>
      <trkpt lat="48.4433" lon="2.70261">
        <ele>87</ele>
        <time>2017-02-12T09:49:12Z</time>
      </trkpt>
      <trkpt lat="48.44339" lon="2.70228">
        <ele>87</ele>
        <time>2017-02-12T09:49:30Z</time>
      </trkpt>
      <trkpt lat="48.4435" lon="2.70198">
        <ele>87</ele>
        <time>2017-02-12T09:49:45Z</time>
      </trkpt>
      <trkpt lat="48.44356" lon="2.70165">
        <ele>87</ele>
        <time>2017-02-12T09:50:16Z</time>
      </trkpt>
      <trkpt lat="48.44364" lon="2.70096">
        <ele>87</ele>
        <time>2017-02-12T09:50:49Z</time>
      </trkpt>
      <trkpt lat="48.44358" lon="2.70062">
        <ele>88</ele>
        <time>2017-02-12T09:51:13Z</time>
      </trkpt>
      <trkpt lat="48.44363" lon="2.70026">
        <ele>87</ele>
        <time>2017-02-12T09:51:32Z</time>
      </trkpt>
      <trkpt lat="48.4436" lon="2.69992">
        <ele>87</ele>
        <time>2017-02-12T09:51:50Z</time>
      </trkpt>
      <trkpt lat="48.44347" lon="2.69961">
        <ele>87</ele>
        <time>2017-02-12T09:52:10Z</time>
      </trkpt>
      <trkpt lat="48.44343" lon="2.69925">
        <ele>87</ele>
        <time>2017-02-12T09:52:24Z</time>
      </trkpt>
      <trkpt lat="48.4433" lon="2.69897">
        <ele>87</ele>
        <time>2017-02-12T09:52:47Z</time>
      </trkpt>
      <trkpt lat="48.4431" lon="2.69881">
        <ele>87</ele>
        <time>2017-02-12T09:53:07Z</time>
      </trkpt>
      <trkpt lat="48.44299" lon="2.69851">
        <ele>87</ele>
        <time>2017-02-12T09:53:23Z</time>
      </trkpt>
      <trkpt lat="48.44304" lon="2.69816">
        <ele>87</ele>
        <time>2017-02-12T09:53:43Z</time>
      </trkpt>
      <trkpt lat="48.44295" lon="2.69785">
        <ele>84</ele>
        <time>2017-02-12T09:55:31Z</time>
      </trkpt>
      <trkpt lat="48.44303" lon="2.69754">
        <ele>87</ele>
        <time>2017-02-12T09:56:05Z</time>
      </trkpt>
      <trkpt lat="48.44322" lon="2.69736">
        <ele>86</ele>
        <time>2017-02-12T09:56:34Z</time>
      </trkpt>
      <trkpt lat="48.44345" lon="2.69732">
        <ele>86</ele>
        <time>2017-02-12T09:56:54Z</time>
      </trkpt>
      <trkpt lat="48.4435" lon="2.69698">
        <ele>86</ele>
        <time>2017-02-12T09:57:18Z</time>
      </trkpt>
      <trkpt lat="48.44333" lon="2.69673">
        <ele>86</ele>
        <time>2017-02-12T09:57:40Z</time>
      </trkpt>
      <trkpt lat="48.44323" lon="2.69642">
        <ele>85</ele>
        <time>2017-02-12T09:57:57Z</time>
      </trkpt>
      <trkpt lat="48.44306" lon="2.69618">
        <ele>85</ele>
        <time>2017-02-12T09:58:17Z</time>
      </trkpt>
      <trkpt lat="48.44299" lon="2.69585">
        <ele>85</ele>
        <time>2017-02-12T09:58:37Z</time>
      </trkpt>
      <trkpt lat="48.44297" lon="2.69551">
        <ele>85</ele>
        <time>2017-02-12T09:58:58Z</time>
      </trkpt>
      <trkpt lat="48.44297" lon="2.69517">
        <ele>85</ele>
        <time>2017-02-12T10:00:24Z</time>
      </trkpt>
      <trkpt lat="48.44308" lon="2.69486">
        <ele>85</ele>
        <time>2017-02-12T10:00:47Z</time>
      </trkpt>
      <trkpt lat="48.44326" lon="2.69464">
        <ele>85</ele>
        <time>2017-02-12T10:01:07Z</time>
      </trkpt>
      <trkpt lat="48.44349" lon="2.69458">
        <ele>85</ele>
        <time>2017-02-12T10:01:25Z</time>
      </trkpt>
      <trkpt lat="48.44366" lon="2.69437">
        <ele>85</ele>
        <time>2017-02-12T10:01:54Z</time>
      </trkpt>
      <trkpt lat="48.44388" lon="2.69428">
        <ele>85</ele>
        <time>2017-02-12T10:04:15Z</time>
      </trkpt>
      <trkpt lat="48.44429" lon="2.69464">
        <ele>86</ele>
        <time>2017-02-12T10:05:04Z</time>
      </trkpt>
      <trkpt lat="48.44451" lon="2.69471">
        <ele>86</ele>
        <time>2017-02-12T10:05:21Z</time>
      </trkpt>
      <trkpt lat="48.44473" lon="2.69469">
        <ele>86</ele>
        <time>2017-02-12T10:05:43Z</time>
      </trkpt>
      <trkpt lat="48.44495" lon="2.69458">
        <ele>86</ele>
        <time>2017-02-12T10:06:08Z</time>
      </trkpt>
      <trkpt lat="48.44532" lon="2.69418">
        <ele>86</ele>
        <time>2017-02-12T10:06:44Z</time>
      </trkpt>
      <trkpt lat="48.44547" lon="2.69391">
        <ele>86</ele>
        <time>2017-02-12T10:07:06Z</time>
      </trkpt>
      <trkpt lat="48.44557" lon="2.6936">
        <ele>86</ele>
        <time>2017-02-12T10:07:23Z</time>
      </trkpt>
      <trkpt lat="48.44574" lon="2.69336">
        <ele>85</ele>
        <time>2017-02-12T10:07:42Z</time>
      </trkpt>
      <trkpt lat="48.44594" lon="2.6932">
        <ele>85</ele>
        <time>2017-02-12T10:08:02Z</time>
      </trkpt>
      <trkpt lat="48.44617" lon="2.69316">
        <ele>85</ele>
        <time>2017-02-12T10:08:21Z</time>
      </trkpt>
      <trkpt lat="48.44637" lon="2.69331">
        <ele>84</ele>
        <time>2017-02-12T10:08:38Z</time>
      </trkpt>
      <trkpt lat="48.44674" lon="2.69372">
        <ele>84</ele>
        <time>2017-02-12T10:09:16Z</time>
      </trkpt>
      <trkpt lat="48.44693" lon="2.69389">
        <ele>84</ele>
        <time>2017-02-12T10:09:38Z</time>
      </trkpt>
      <trkpt lat="48.44715" lon="2.69382">
        <ele>84</ele>
        <time>2017-02-12T10:10:03Z</time>
      </trkpt>
      <trkpt lat="48.44757" lon="2.69355">
        <ele>84</ele>
        <time>2017-02-12T10:10:48Z</time>
      </trkpt>
      <trkpt lat="48.4477" lon="2.69361">
        <ele>84</ele>
        <time>2017-02-12T10:12:12Z</time>
      </trkpt>
      <trkpt lat="48.4479" lon="2.69377">
        <ele>83</ele>
        <time>2017-02-12T10:12:41Z</time>
      </trkpt>
      <trkpt lat="48.44834" lon="2.69363">
        <ele>83</ele>
        <time>2017-02-12T10:13:35Z</time>
      </trkpt>
      <trkpt lat="48.44878" lon="2.69346">
        <ele>83</ele>
        <time>2017-02-12T10:14:26Z</time>
      </trkpt>
      <trkpt lat="48.44901" lon="2.69341">
        <ele>83</ele>
        <time>2017-02-12T10:14:45Z</time>
      </trkpt>
      <trkpt lat="48.44938" lon="2.69302">
        <ele>83</ele>
        <time>2017-02-12T10:15:32Z</time>
      </trkpt>
      <trkpt lat="48.44966" lon="2.69246">
        <ele>83</ele>
        <time>2017-02-12T10:16:10Z</time>
      </trkpt>
      <trkpt lat="48.44982" lon="2.69221">
        <ele>83</ele>
        <time>2017-02-12T10:16:30Z</time>
      </trkpt>
      <trkpt lat="48.45019" lon="2.69179">
        <ele>84</ele>
        <time>2017-02-12T10:17:12Z</time>
      </trkpt>
      <trkpt lat="48.45041" lon="2.69175">
        <ele>84</ele>
        <time>2017-02-12T10:17:31Z</time>
      </trkpt>
      <trkpt lat="48.45084" lon="2.69147">
        <ele>84</ele>
        <time>2017-02-12T10:18:10Z</time>
      </trkpt>
      <trkpt lat="48.45099" lon="2.6912">
        <ele>85</ele>
        <time>2017-02-12T10:18:32Z</time>
      </trkpt>
      <trkpt lat="48.45099" lon="2.69087">
        <ele>85</ele>
        <time>2017-02-12T10:18:55Z</time>
      </trkpt>
      <trkpt lat="48.45107" lon="2.69054">
        <ele>85</ele>
        <time>2017-02-12T10:19:12Z</time>
      </trkpt>
      <trkpt lat="48.4512" lon="2.69025">
        <ele>85</ele>
        <time>2017-02-12T10:19:32Z</time>
      </trkpt>
      <trkpt lat="48.45138" lon="2.69003">
        <ele>86</ele>
        <time>2017-02-12T10:19:55Z</time>
      </trkpt>
      <trkpt lat="48.45159" lon="2.68988">
        <ele>88</ele>
        <time>2017-02-12T10:20:15Z</time>
      </trkpt>
      <trkpt lat="48.45187" lon="2.68934">
        <ele>92</ele>
        <time>2017-02-12T10:21:10Z</time>
      </trkpt>
      <trkpt lat="48.45209" lon="2.68869">
        <ele>101</ele>
        <time>2017-02-12T10:22:28Z</time>
      </trkpt>
      <trkpt lat="48.45209" lon="2.68834">
        <ele>106</ele>
        <time>2017-02-12T10:23:01Z</time>
      </trkpt>
      <trkpt lat="48.45202" lon="2.68817">
        <ele>113</ele>
        <time>2017-02-12T10:26:51Z</time>
      </trkpt>
      <trkpt lat="48.45208" lon="2.68784">
        <ele>113</ele>
        <time>2017-02-12T10:35:11Z</time>
      </trkpt>
      <trkpt lat="48.45201" lon="2.6875">
        <ele>106</ele>
        <time>2017-02-12T10:36:04Z</time>
      </trkpt>
      <trkpt lat="48.45156" lon="2.68741">
        <ele>102</ele>
        <time>2017-02-12T10:36:55Z</time>
      </trkpt>
      <trkpt lat="48.45133" lon="2.68741">
        <ele>99</ele>
        <time>2017-02-12T10:37:26Z</time>
      </trkpt>
      <trkpt lat="48.4511" lon="2.68746">
        <ele>96</ele>
        <time>2017-02-12T10:37:49Z</time>
      </trkpt>
      <trkpt lat="48.45061" lon="2.68749">
        <ele>91</ele>
        <time>2017-02-12T10:38:40Z</time>
      </trkpt>
      <trkpt lat="48.45015" lon="2.68734">
        <ele>87</ele>
        <time>2017-02-12T10:39:16Z</time>
      </trkpt>
      <trkpt lat="48.44995" lon="2.68716">
        <ele>86</ele>
        <time>2017-02-12T10:39:55Z</time>
      </trkpt>
      <trkpt lat="48.44973" lon="2.68706">
        <ele>85</ele>
        <time>2017-02-12T10:40:37Z</time>
      </trkpt>
      <trkpt lat="48.44953" lon="2.68692">
        <ele>85</ele>
        <time>2017-02-12T10:41:10Z</time>
      </trkpt>
      <trkpt lat="48.44915" lon="2.68655">
        <ele>86</ele>
        <time>2017-02-12T10:41:47Z</time>
      </trkpt>
      <trkpt lat="48.44898" lon="2.68632">
        <ele>87</ele>
        <time>2017-02-12T10:42:14Z</time>
      </trkpt>
      <trkpt lat="48.4489" lon="2.686">
        <ele>88</ele>
        <time>2017-02-12T10:42:41Z</time>
      </trkpt>
      <trkpt lat="48.44887" lon="2.68565">
        <ele>89</ele>
        <time>2017-02-12T10:43:00Z</time>
      </trkpt>
      <trkpt lat="48.44869" lon="2.68542">
        <ele>91</ele>
        <time>2017-02-12T10:43:43Z</time>
      </trkpt>
      <trkpt lat="48.4485" lon="2.68525">
        <ele>93</ele>
        <time>2017-02-12T10:44:13Z</time>
      </trkpt>
      <trkpt lat="48.44835" lon="2.685">
        <ele>95</ele>
        <time>2017-02-12T10:44:42Z</time>
      </trkpt>
      <trkpt lat="48.44789" lon="2.68491">
        <ele>100</ele>
        <time>2017-02-12T10:45:29Z</time>
      </trkpt>
      <trkpt lat="48.44769" lon="2.68475">
        <ele>103</ele>
        <time>2017-02-12T10:45:53Z</time>
      </trkpt>
      <trkpt lat="48.44755" lon="2.68448">
        <ele>105</ele>
        <time>2017-02-12T10:46:19Z</time>
      </trkpt>
      <trkpt lat="48.44737" lon="2.68426">
        <ele>107</ele>
        <time>2017-02-12T10:46:47Z</time>
      </trkpt>
      <trkpt lat="48.44755" lon="2.68405">
        <ele>109</ele>
        <time>2017-02-12T10:47:23Z</time>
      </trkpt>
      <trkpt lat="48.44767" lon="2.68435">
        <ele>111</ele>
        <time>2017-02-12T10:47:58Z</time>
      </trkpt>
      <trkpt lat="48.4479" lon="2.68443">
        <ele>113</ele>
        <time>2017-02-12T10:48:24Z</time>
      </trkpt>
      <trkpt lat="48.4481" lon="2.68428">
        <ele>116</ele>
        <time>2017-02-12T10:49:02Z</time>
      </trkpt>
      <trkpt lat="48.44828" lon="2.68405">
        <ele>118</ele>
        <time>2017-02-12T10:49:26Z</time>
      </trkpt>
      <trkpt lat="48.44871" lon="2.68378">
        <ele>121</ele>
        <time>2017-02-12T10:50:12Z</time>
      </trkpt>
      <trkpt lat="48.44887" lon="2.68355">
        <ele>121</ele>
        <time>2017-02-12T10:50:47Z</time>
      </trkpt>
      <trkpt lat="48.44869" lon="2.68334">
        <ele>122</ele>
        <time>2017-02-12T10:51:20Z</time>
      </trkpt>
      <trkpt lat="48.44852" lon="2.68312">
        <ele>123</ele>
        <time>2017-02-12T10:51:47Z</time>
      </trkpt>
      <trkpt lat="48.4483" lon="2.68304">
        <ele>124</ele>
        <time>2017-02-12T10:52:05Z</time>
      </trkpt>
      <trkpt lat="48.44823" lon="2.68271">
        <ele>125</ele>
        <time>2017-02-12T10:52:26Z</time>
      </trkpt>
      <trkpt lat="48.44807" lon="2.68246">
        <ele>125</ele>
        <time>2017-02-12T10:52:47Z</time>
      </trkpt>
      <trkpt lat="48.44771" lon="2.68204">
        <ele>126</ele>
        <time>2017-02-12T10:53:30Z</time>
      </trkpt>
      <trkpt lat="48.44734" lon="2.68162">
        <ele>127</ele>
        <time>2017-02-12T10:54:18Z</time>
      </trkpt>
      <trkpt lat="48.44713" lon="2.68147">
        <ele>128</ele>
        <time>2017-02-12T10:54:44Z</time>
      </trkpt>
      <trkpt lat="48.4469" lon="2.68146">
        <ele>128</ele>
        <time>2017-02-12T10:55:00Z</time>
      </trkpt>
      <trkpt lat="48.44681" lon="2.68114">
        <ele>129</ele>
        <time>2017-02-12T10:55:25Z</time>
      </trkpt>
      <trkpt lat="48.44666" lon="2.68087">
        <ele>130</ele>
        <time>2017-02-12T10:55:40Z</time>
      </trkpt>
      <trkpt lat="48.4463" lon="2.68046">
        <ele>132</ele>
        <time>2017-02-12T10:56:19Z</time>
      </trkpt>
      <trkpt lat="48.44609" lon="2.68032">
        <ele>132</ele>
        <time>2017-02-12T10:56:34Z</time>
      </trkpt>
      <trkpt lat="48.44585" lon="2.68022">
        <ele>133</ele>
        <time>2017-02-12T10:56:52Z</time>
      </trkpt>
      <trkpt lat="48.44561" lon="2.68028">
        <ele>134</ele>
        <time>2017-02-12T10:57:21Z</time>
      </trkpt>
      <trkpt lat="48.4454" lon="2.68016">
        <ele>134</ele>
        <time>2017-02-12T10:57:43Z</time>
      </trkpt>
      <trkpt lat="48.4455" lon="2.6802">
        <ele>135</ele>
        <time>2017-02-12T10:58:35Z</time>
      </trkpt>
      <trkpt lat="48.44568" lon="2.68004">
        <ele>136</ele>
        <time>2017-02-12T10:59:14Z</time>
      </trkpt>
      <trkpt lat="48.44558" lon="2.67974">
        <ele>137</ele>
        <time>2017-02-12T11:00:25Z</time>
      </trkpt>
      <trkpt lat="48.44554" lon="2.67939">
        <ele>137</ele>
        <time>2017-02-12T11:00:48Z</time>
      </trkpt>
      <trkpt lat="48.44569" lon="2.67914">
        <ele>137</ele>
        <time>2017-02-12T11:01:05Z</time>
      </trkpt>
      <trkpt lat="48.44568" lon="2.67879">
        <ele>137</ele>
        <time>2017-02-12T11:01:34Z</time>
      </trkpt>
      <trkpt lat="48.4456" lon="2.67846">
        <ele>135</ele>
        <time>2017-02-12T11:02:08Z</time>
      </trkpt>
      <trkpt lat="48.44567" lon="2.67811">
        <ele>134</ele>
        <time>2017-02-12T11:02:28Z</time>
      </trkpt>
      <trkpt lat="48.44559" lon="2.67779">
        <ele>133</ele>
        <time>2017-02-12T11:02:59Z</time>
      </trkpt>
      <trkpt lat="48.44537" lon="2.67773">
        <ele>134</ele>
        <time>2017-02-12T11:03:37Z</time>
      </trkpt>
      <trkpt lat="48.44491" lon="2.67769">
        <ele>134</ele>
        <time>2017-02-12T11:04:09Z</time>
      </trkpt>
      <trkpt lat="48.44477" lon="2.67764">
        <ele>134</ele>
        <time>2017-02-12T11:04:32Z</time>
      </trkpt>
      <trkpt lat="48.44477" lon="2.67729">
        <ele>134</ele>
        <time>2017-02-12T11:05:34Z</time>
      </trkpt>
      <trkpt lat="48.44486" lon="2.67698">
        <ele>134</ele>
        <time>2017-02-12T11:06:03Z</time>
      </trkpt>
      <trkpt lat="48.4448" lon="2.67665">
        <ele>134</ele>
        <time>2017-02-12T11:06:30Z</time>
      </trkpt>
      <trkpt lat="48.44488" lon="2.67596">
        <ele>134</ele>
        <time>2017-02-12T11:07:28Z</time>
      </trkpt>
      <trkpt lat="48.44493" lon="2.67563">
        <ele>134</ele>
        <time>2017-02-12T11:07:54Z</time>
      </trkpt>
      <trkpt lat="48.44516" lon="2.67557">
        <ele>134</ele>
        <time>2017-02-12T11:08:23Z</time>
      </trkpt>
      <trkpt lat="48.44539" lon="2.67566">
        <ele>135</ele>
        <time>2017-02-12T11:08:45Z</time>
      </trkpt>
      <trkpt lat="48.44561" lon="2.67565">
        <ele>134</ele>
        <time>2017-02-12T11:10:39Z</time>
      </trkpt>
      <trkpt lat="48.44576" lon="2.67539">
        <ele>130</ele>
        <time>2017-02-12T11:10:56Z</time>
      </trkpt>
      <trkpt lat="48.44598" lon="2.67528">
        <ele>128</ele>
        <time>2017-02-12T11:11:19Z</time>
      </trkpt>
      <trkpt lat="48.44644" lon="2.67535">
        <ele>126</ele>
        <time>2017-02-12T11:11:55Z</time>
      </trkpt>
      <trkpt lat="48.44658" lon="2.67562">
        <ele>126</ele>
        <time>2017-02-12T11:12:18Z</time>
      </trkpt>
      <trkpt lat="48.44676" lon="2.67583">
        <ele>127</ele>
        <time>2017-02-12T11:12:54Z</time>
      </trkpt>
      <trkpt lat="48.44714" lon="2.67623">
        <ele>127</ele>
        <time>2017-02-12T11:13:35Z</time>
      </trkpt>
      <trkpt lat="48.44733" lon="2.67641">
        <ele>126</ele>
        <time>2017-02-12T11:14:08Z</time>
      </trkpt>
      <trkpt lat="48.44773" lon="2.67676">
        <ele>126</ele>
        <time>2017-02-12T11:14:53Z</time>
      </trkpt>
      <trkpt lat="48.44788" lon="2.67703">
        <ele>127</ele>
        <time>2017-02-12T11:15:29Z</time>
      </trkpt>
      <trkpt lat="48.44826" lon="2.67737">
        <ele>130</ele>
        <time>2017-02-12T11:16:24Z</time>
      </trkpt>
      <trkpt lat="48.44847" lon="2.67719">
        <ele>131</ele>
        <time>2017-02-12T11:16:49Z</time>
      </trkpt>
      <trkpt lat="48.44868" lon="2.67656">
        <ele>132</ele>
        <time>2017-02-12T11:17:34Z</time>
      </trkpt>
      <trkpt lat="48.44882" lon="2.67626">
        <ele>132</ele>
        <time>2017-02-12T11:18:14Z</time>
      </trkpt>
      <trkpt lat="48.44922" lon="2.67595">
        <ele>131</ele>
        <time>2017-02-12T11:18:50Z</time>
      </trkpt>
      <trkpt lat="48.44945" lon="2.67603">
        <ele>131</ele>
        <time>2017-02-12T11:19:03Z</time>
      </trkpt>
      <trkpt lat="48.44968" lon="2.67601">
        <ele>131</ele>
        <time>2017-02-12T11:19:25Z</time>
      </trkpt>
      <trkpt lat="48.4499" lon="2.67591">
        <ele>132</ele>
        <time>2017-02-12T11:19:49Z</time>
      </trkpt>
      <trkpt lat="48.45024" lon="2.67637">
        <ele>133</ele>
        <time>2017-02-12T11:20:26Z</time>
      </trkpt>
      <trkpt lat="48.45037" lon="2.67667">
        <ele>133</ele>
        <time>2017-02-12T11:20:48Z</time>
      </trkpt>
      <trkpt lat="48.45055" lon="2.67686">
        <ele>132</ele>
        <time>2017-02-12T11:21:12Z</time>
      </trkpt>
      <trkpt lat="48.4507" lon="2.67711">
        <ele>131</ele>
        <time>2017-02-12T11:21:33Z</time>
      </trkpt>
      <trkpt lat="48.45117" lon="2.6772">
        <ele>131</ele>
        <time>2017-02-12T11:22:26Z</time>
      </trkpt>
      <trkpt lat="48.45131" lon="2.67692">
        <ele>131</ele>
        <time>2017-02-12T11:22:56Z</time>
      </trkpt>
      <trkpt lat="48.45125" lon="2.67658">
        <ele>130</ele>
        <time>2017-02-12T11:23:16Z</time>
      </trkpt>
      <trkpt lat="48.45115" lon="2.67627">
        <ele>130</ele>
        <time>2017-02-12T11:23:38Z</time>
      </trkpt>
      <trkpt lat="48.45107" lon="2.67558">
        <ele>130</ele>
        <time>2017-02-12T11:24:25Z</time>
      </trkpt>
      <trkpt lat="48.45101" lon="2.67525">
        <ele>131</ele>
        <time>2017-02-12T11:24:45Z</time>
      </trkpt>
      <trkpt lat="48.45086" lon="2.675">
        <ele>131</ele>
        <time>2017-02-12T11:25:10Z</time>
      </trkpt>
      <trkpt lat="48.45083" lon="2.67466">
        <ele>131</ele>
        <time>2017-02-12T11:25:31Z</time>
      </trkpt>
      <trkpt lat="48.45073" lon="2.67435">
        <ele>132</ele>
        <time>2017-02-12T11:25:54Z</time>
      </trkpt>
      <trkpt lat="48.45068" lon="2.67402">
        <ele>132</ele>
        <time>2017-02-12T11:26:13Z</time>
      </trkpt>
      <trkpt lat="48.45077" lon="2.67369">
        <ele>132</ele>
        <time>2017-02-12T11:26:44Z</time>
      </trkpt>
      <trkpt lat="48.45103" lon="2.6731">
        <ele>134</ele>
        <time>2017-02-12T11:27:37Z</time>
      </trkpt>
      <trkpt lat="48.45125" lon="2.673">
        <ele>134</ele>
        <time>2017-02-12T11:27:50Z</time>
      </trkpt>
      <trkpt lat="48.45137" lon="2.6727">
        <ele>134</ele>
        <time>2017-02-12T11:28:14Z</time>
      </trkpt>
      <trkpt lat="48.45154" lon="2.67247">
        <ele>133</ele>
        <time>2017-02-12T11:28:32Z</time>
      </trkpt>
      <trkpt lat="48.45198" lon="2.67224">
        <ele>134</ele>
        <time>2017-02-12T11:29:18Z</time>
      </trkpt>
      <trkpt lat="48.45238" lon="2.67193">
        <ele>135</ele>
        <time>2017-02-12T11:29:59Z</time>
      </trkpt>
      <trkpt lat="48.45274" lon="2.6715">
        <ele>135</ele>
        <time>2017-02-12T11:30:45Z</time>
      </trkpt>
      <trkpt lat="48.45307" lon="2.67156">
        <ele>135</ele>
        <time>2017-02-12T11:31:38Z</time>
      </trkpt>
      <trkpt lat="48.45319" lon="2.67184">
        <ele>135</ele>
        <time>2017-02-12T11:32:07Z</time>
      </trkpt>
      <trkpt lat="48.45339" lon="2.67248">
        <ele>134</ele>
        <time>2017-02-12T11:32:41Z</time>
      </trkpt>
      <trkpt lat="48.45347" lon="2.6728">
        <ele>133</ele>
        <time>2017-02-12T11:32:58Z</time>
      </trkpt>
      <trkpt lat="48.45377" lon="2.67332">
        <ele>132</ele>
        <time>2017-02-12T11:33:32Z</time>
      </trkpt>
      <trkpt lat="48.4539" lon="2.6736">
        <ele>131</ele>
        <time>2017-02-12T11:33:56Z</time>
      </trkpt>
      <trkpt lat="48.45391" lon="2.67396">
        <ele>129</ele>
        <time>2017-02-12T11:34:13Z</time>
      </trkpt>
      <trkpt lat="48.4545" lon="2.67455">
        <ele>124</ele>
        <time>2017-02-12T11:35:00Z</time>
      </trkpt>
      <trkpt lat="48.45486" lon="2.67495">
        <ele>118</ele>
        <time>2017-02-12T11:35:41Z</time>
      </trkpt>
      <trkpt lat="48.45532" lon="2.6752">
        <ele>111</ele>
        <time>2017-02-12T11:36:25Z</time>
      </trkpt>
      <trkpt lat="48.45554" lon="2.67529">
        <ele>107</ele>
        <time>2017-02-12T11:36:40Z</time>
      </trkpt>
      <trkpt lat="48.45555" lon="2.67495">
        <ele>104</ele>
        <time>2017-02-12T11:37:02Z</time>
      </trkpt>
      <trkpt lat="48.45579" lon="2.67435">
        <ele>100</ele>
        <time>2017-02-12T11:37:39Z</time>
      </trkpt>
      <trkpt lat="48.45598" lon="2.67371">
        <ele>99</ele>
        <time>2017-02-12T11:38:09Z</time>
      </trkpt>
      <trkpt lat="48.45621" lon="2.67302">
        <ele>97</ele>
        <time>2017-02-12T11:38:48Z</time>
      </trkpt>
      <trkpt lat="48.45639" lon="2.67239">
        <ele>95</ele>
        <time>2017-02-12T11:39:21Z</time>
      </trkpt>
      <trkpt lat="48.45662" lon="2.6718">
        <ele>95</ele>
        <time>2017-02-12T11:39:58Z</time>
      </trkpt>
      <trkpt lat="48.4568" lon="2.67117">
        <ele>95</ele>
        <time>2017-02-12T11:40:31Z</time>
      </trkpt>
      <trkpt lat="48.45694" lon="2.6709">
        <ele>95</ele>
        <time>2017-02-12T11:40:45Z</time>
      </trkpt>
      <trkpt lat="48.457" lon="2.67057">
        <ele>95</ele>
        <time>2017-02-12T11:41:05Z</time>
      </trkpt>
      <trkpt lat="48.45714" lon="2.67029">
        <ele>96</ele>
        <time>2017-02-12T11:41:25Z</time>
      </trkpt>
      <trkpt lat="48.45718" lon="2.66995">
        <ele>98</ele>
        <time>2017-02-12T11:43:44Z</time>
      </trkpt>
      <trkpt lat="48.45732" lon="2.66967">
        <ele>98</ele>
        <time>2017-02-12T11:44:02Z</time>
      </trkpt>
      <trkpt lat="48.45752" lon="2.66905">
        <ele>99</ele>
        <time>2017-02-12T11:44:44Z</time>
      </trkpt>
      <trkpt lat="48.45767" lon="2.66839">
        <ele>99</ele>
        <time>2017-02-12T11:45:25Z</time>
      </trkpt>
      <trkpt lat="48.45784" lon="2.66817">
        <ele>99</ele>
        <time>2017-02-12T11:45:46Z</time>
      </trkpt>
      <trkpt lat="48.45828" lon="2.66798">
        <ele>99</ele>
        <time>2017-02-12T11:46:20Z</time>
      </trkpt>
      <trkpt lat="48.45871" lon="2.6677">
        <ele>99</ele>
        <time>2017-02-12T11:47:04Z</time>
      </trkpt>
      <trkpt lat="48.45887" lon="2.66745">
        <ele>98</ele>
        <time>2017-02-12T11:47:21Z</time>
      </trkpt>
      <trkpt lat="48.45909" lon="2.66732">
        <ele>97</ele>
        <time>2017-02-12T11:47:35Z</time>
      </trkpt>
      <trkpt lat="48.45923" lon="2.66705">
        <ele>97</ele>
        <time>2017-02-12T11:47:58Z</time>
      </trkpt>
      <trkpt lat="48.45924" lon="2.66671">
        <ele>97</ele>
        <time>2017-02-12T11:48:51Z</time>
      </trkpt>
      <trkpt lat="48.45931" lon="2.66604">
        <ele>98</ele>
        <time>2017-02-12T11:49:39Z</time>
      </trkpt>
      <trkpt lat="48.45927" lon="2.66569">
        <ele>99</ele>
        <time>2017-02-12T11:50:05Z</time>
      </trkpt>
      <trkpt lat="48.45939" lon="2.66539">
        <ele>99</ele>
        <time>2017-02-12T11:50:23Z</time>
      </trkpt>
      <trkpt lat="48.45935" lon="2.66504">
        <ele>98</ele>
        <time>2017-02-12T11:50:45Z</time>
      </trkpt>
      <trkpt lat="48.45943" lon="2.66472">
        <ele>98</ele>
        <time>2017-02-12T11:51:12Z</time>
      </trkpt>
      <trkpt lat="48.45962" lon="2.66451">
        <ele>97</ele>
        <time>2017-02-12T11:51:45Z</time>
      </trkpt>
      <trkpt lat="48.4598" lon="2.66431">
        <ele>96</ele>
        <time>2017-02-12T11:52:07Z</time>
      </trkpt>
      <trkpt lat="48.46004" lon="2.66428">
        <ele>95</ele>
        <time>2017-02-12T11:52:25Z</time>
      </trkpt>
      <trkpt lat="48.46029" lon="2.66435">
        <ele>94</ele>
        <time>2017-02-12T11:52:49Z</time>
      </trkpt>
      <trkpt lat="48.46052" lon="2.6643">
        <ele>102</ele>
        <time>2017-02-12T11:57:55Z</time>
      </trkpt>
      <trkpt lat="48.46075" lon="2.66421">
        <ele>107</ele>
        <time>2017-02-12T12:00:10Z</time>
      </trkpt>
      <trkpt lat="48.46092" lon="2.66401">
        <ele>105</ele>
        <time>2017-02-12T12:09:02Z</time>
      </trkpt>
      <trkpt lat="48.46131" lon="2.66377">
        <ele>92</ele>
        <time>2017-02-12T12:52:08Z</time>
      </trkpt>
      <trkpt lat="48.46154" lon="2.66383">
        <ele>93</ele>
        <time>2017-02-12T12:52:28Z</time>
      </trkpt>
      <trkpt lat="48.46177" lon="2.66384">
        <ele>94</ele>
        <time>2017-02-12T12:53:16Z</time>
      </trkpt>
      <trkpt lat="48.46192" lon="2.66357">
        <ele>96</ele>
        <time>2017-02-12T12:54:18Z</time>
      </trkpt>
      <trkpt lat="48.4621" lon="2.66334">
        <ele>97</ele>
        <time>2017-02-12T12:54:58Z</time>
      </trkpt>
      <trkpt lat="48.46233" lon="2.66337">
        <ele>97</ele>
        <time>2017-02-12T12:56:08Z</time>
      </trkpt>
      <trkpt lat="48.46238" lon="2.66372">
        <ele>100</ele>
        <time>2017-02-12T12:57:12Z</time>
      </trkpt>
      <trkpt lat="48.46258" lon="2.66389">
        <ele>100</ele>
        <time>2017-02-12T12:58:02Z</time>
      </trkpt>
      <trkpt lat="48.46271" lon="2.66418">
        <ele>95</ele>
        <time>2017-02-12T12:59:05Z</time>
      </trkpt>
      <trkpt lat="48.4627" lon="2.66452">
        <ele>90</ele>
        <time>2017-02-12T12:59:50Z</time>
      </trkpt>
      <trkpt lat="48.46274" lon="2.66486">
        <ele>89</ele>
        <time>2017-02-12T13:00:16Z</time>
      </trkpt>
      <trkpt lat="48.46285" lon="2.66516">
        <ele>88</ele>
        <time>2017-02-12T13:00:36Z</time>
      </trkpt>
      <trkpt lat="48.46285" lon="2.6655">
        <ele>88</ele>
        <time>2017-02-12T13:01:00Z</time>
      </trkpt>
      <trkpt lat="48.46308" lon="2.66545">
        <ele>87</ele>
        <time>2017-02-12T13:01:34Z</time>
      </trkpt>
      <trkpt lat="48.46354" lon="2.66528">
        <ele>87</ele>
        <time>2017-02-12T13:02:12Z</time>
      </trkpt>
      <trkpt lat="48.46377" lon="2.66517">
        <ele>87</ele>
        <time>2017-02-12T13:02:32Z</time>
      </trkpt>
      <trkpt lat="48.46415" lon="2.66476">
        <ele>86</ele>
        <time>2017-02-12T13:03:12Z</time>
      </trkpt>
      <trkpt lat="48.46424" lon="2.66445">
        <ele>86</ele>
        <time>2017-02-12T13:03:34Z</time>
      </trkpt>
      <trkpt lat="48.46429" lon="2.66411">
        <ele>85</ele>
        <time>2017-02-12T13:03:56Z</time>
      </trkpt>
      <trkpt lat="48.46426" lon="2.66342">
        <ele>85</ele>
        <time>2017-02-12T13:04:26Z</time>
      </trkpt>
      <trkpt lat="48.46431" lon="2.66308">
        <ele>85</ele>
        <time>2017-02-12T13:04:46Z</time>
      </trkpt>
      <trkpt lat="48.46435" lon="2.66239">
        <ele>84</ele>
        <time>2017-02-12T13:05:23Z</time>
      </trkpt>
      <trkpt lat="48.46434" lon="2.66204">
        <ele>84</ele>
        <time>2017-02-12T13:05:50Z</time>
      </trkpt>
      <trkpt lat="48.4644" lon="2.66171">
        <ele>84</ele>
        <time>2017-02-12T13:06:09Z</time>
      </trkpt>
      <trkpt lat="48.46442" lon="2.661">
        <ele>84</ele>
        <time>2017-02-12T13:06:48Z</time>
      </trkpt>
      <trkpt lat="48.46428" lon="2.66071">
        <ele>84</ele>
        <time>2017-02-12T13:07:04Z</time>
      </trkpt>
      <trkpt lat="48.46384" lon="2.66048">
        <ele>84</ele>
        <time>2017-02-12T13:07:43Z</time>
      </trkpt>
      <trkpt lat="48.46338" lon="2.66044">
        <ele>85</ele>
        <time>2017-02-12T13:08:21Z</time>
      </trkpt>
      <trkpt lat="48.46293" lon="2.66035">
        <ele>86</ele>
        <time>2017-02-12T13:09:00Z</time>
      </trkpt>
      <trkpt lat="48.46245" lon="2.66032">
        <ele>87</ele>
        <time>2017-02-12T13:09:37Z</time>
      </trkpt>
      <trkpt lat="48.46198" lon="2.66042">
        <ele>88</ele>
        <time>2017-02-12T13:10:19Z</time>
      </trkpt>
      <trkpt lat="48.46131" lon="2.66031">
        <ele>94.5</ele>
        <time>2017-02-12T13:10:50Z</time>
      </trkpt>
      <trkpt lat="48.46126" lon="2.66041">
        <ele>91</ele>
        <time>2017-02-12T13:11:25Z</time>
      </trkpt>
      <trkpt lat="48.46103" lon="2.66043">
        <ele>93</ele>
        <time>2017-02-12T13:11:57Z</time>
      </trkpt>
      <trkpt lat="48.46082" lon="2.66058">
        <ele>94</ele>
        <time>2017-02-12T13:12:19Z</time>
      </trkpt>
      <trkpt lat="48.46065" lon="2.66082">
        <ele>95</ele>
        <time>2017-02-12T13:12:51Z</time>
      </trkpt>
      <trkpt lat="48.4605" lon="2.66108">
        <ele>95</ele>
        <time>2017-02-12T13:13:05Z</time>
      </trkpt>
      <trkpt lat="48.46006" lon="2.66132">
        <ele>95</ele>
        <time>2017-02-12T13:13:42Z</time>
      </trkpt>
      <trkpt lat="48.45983" lon="2.66138">
        <ele>95</ele>
        <time>2017-02-12T13:14:02Z</time>
      </trkpt>
      <trkpt lat="48.45939" lon="2.66123">
        <ele>95</ele>
        <time>2017-02-12T13:14:45Z</time>
      </trkpt>
      <trkpt lat="48.45898" lon="2.66093">
        <ele>95</ele>
        <time>2017-02-12T13:15:21Z</time>
      </trkpt>
      <trkpt lat="48.45856" lon="2.66066">
        <ele>96</ele>
        <time>2017-02-12T13:15:55Z</time>
      </trkpt>
      <trkpt lat="48.4581" lon="2.66063">
        <ele>98</ele>
        <time>2017-02-12T13:16:35Z</time>
      </trkpt>
      <trkpt lat="48.45765" lon="2.66051">
        <ele>99</ele>
        <time>2017-02-12T13:17:16Z</time>
      </trkpt>
      <trkpt lat="48.45721" lon="2.6603">
        <ele>101</ele>
        <time>2017-02-12T13:17:57Z</time>
      </trkpt>
      <trkpt lat="48.45699" lon="2.66033">
        <ele>103</ele>
        <time>2017-02-12T13:18:28Z</time>
      </trkpt>
      <trkpt lat="48.45676" lon="2.66028">
        <ele>106</ele>
        <time>2017-02-12T13:19:06Z</time>
      </trkpt>
      <trkpt lat="48.45654" lon="2.6602">
        <ele>131</ele>
        <time>2017-02-12T13:21:09Z</time>
      </trkpt>
      <trkpt lat="48.45631" lon="2.66016">
        <ele>133</ele>
        <time>2017-02-12T13:21:34Z</time>
      </trkpt>
      <trkpt lat="48.45608" lon="2.66015">
        <ele>134</ele>
        <time>2017-02-12T13:21:57Z</time>
      </trkpt>
      <trkpt lat="48.45563" lon="2.66001">
        <ele>135</ele>
        <time>2017-02-12T13:22:32Z</time>
      </trkpt>
      <trkpt lat="48.4554" lon="2.65994">
        <ele>135</ele>
        <time>2017-02-12T13:22:49Z</time>
      </trkpt>
      <trkpt lat="48.45517" lon="2.65997">
        <ele>135</ele>
        <time>2017-02-12T13:23:10Z</time>
      </trkpt>
      <trkpt lat="48.45471" lon="2.65982">
        <ele>136</ele>
        <time>2017-02-12T13:23:43Z</time>
      </trkpt>
      <trkpt lat="48.45425" lon="2.65981">
        <ele>136</ele>
        <time>2017-02-12T13:24:19Z</time>
      </trkpt>
      <trkpt lat="48.4538" lon="2.65975">
        <ele>136</ele>
        <time>2017-02-12T13:24:55Z</time>
      </trkpt>
      <trkpt lat="48.45357" lon="2.65972">
        <ele>137</ele>
        <time>2017-02-12T13:25:14Z</time>
      </trkpt>
      <trkpt lat="48.45311" lon="2.65962">
        <ele>137</ele>
        <time>2017-02-12T13:25:47Z</time>
      </trkpt>
      <trkpt lat="48.45264" lon="2.6597">
        <ele>138</ele>
        <time>2017-02-12T13:26:25Z</time>
      </trkpt>
      <trkpt lat="48.45219" lon="2.65956">
        <ele>138</ele>
        <time>2017-02-12T13:27:04Z</time>
      </trkpt>
      <trkpt lat="48.45174" lon="2.65939">
        <ele>138</ele>
        <time>2017-02-12T13:27:33Z</time>
      </trkpt>
      <trkpt lat="48.4515" lon="2.65944">
        <ele>139</ele>
        <time>2017-02-12T13:27:50Z</time>
      </trkpt>
      <trkpt lat="48.45105" lon="2.65941">
        <ele>139</ele>
        <time>2017-02-12T13:28:29Z</time>
      </trkpt>
      <trkpt lat="48.45062" lon="2.65923">
        <ele>139</ele>
        <time>2017-02-12T13:28:58Z</time>
      </trkpt>
      <trkpt lat="48.45038" lon="2.65913">
        <ele>140</ele>
        <time>2017-02-12T13:29:14Z</time>
      </trkpt>
      <trkpt lat="48.44992" lon="2.6592">
        <ele>139</ele>
        <time>2017-02-12T13:29:48Z</time>
      </trkpt>
      <trkpt lat="48.44947" lon="2.65908">
        <ele>139</ele>
        <time>2017-02-12T13:30:23Z</time>
      </trkpt>
      <trkpt lat="48.44901" lon="2.65896">
        <ele>139</ele>
        <time>2017-02-12T13:30:56Z</time>
      </trkpt>
      <trkpt lat="48.44857" lon="2.65885">
        <ele>139</ele>
        <time>2017-02-12T13:31:30Z</time>
      </trkpt>
      <trkpt lat="48.44811" lon="2.65887">
        <ele>138</ele>
        <time>2017-02-12T13:32:07Z</time>
      </trkpt>
      <trkpt lat="48.44789" lon="2.65876">
        <ele>138</ele>
        <time>2017-02-12T13:32:28Z</time>
      </trkpt>
      <trkpt lat="48.44772" lon="2.659">
        <ele>135</ele>
        <time>2017-02-12T13:36:20Z</time>
      </trkpt>
      <trkpt lat="48.44754" lon="2.65963">
        <ele>134</ele>
        <time>2017-02-12T13:36:54Z</time>
      </trkpt>
      <trkpt lat="48.44733" lon="2.66026">
        <ele>135</ele>
        <time>2017-02-12T13:37:36Z</time>
      </trkpt>
      <trkpt lat="48.44716" lon="2.66049">
        <ele>136</ele>
        <time>2017-02-12T13:37:54Z</time>
      </trkpt>
      <trkpt lat="48.44674" lon="2.66077">
        <ele>136</ele>
        <time>2017-02-12T13:38:28Z</time>
      </trkpt>
      <trkpt lat="48.44631" lon="2.66101">
        <ele>137</ele>
        <time>2017-02-12T13:39:04Z</time>
      </trkpt>
      <trkpt lat="48.44587" lon="2.66127">
        <ele>136</ele>
        <time>2017-02-12T13:39:40Z</time>
      </trkpt>
      <trkpt lat="48.44545" lon="2.66154">
        <ele>136</ele>
        <time>2017-02-12T13:40:13Z</time>
      </trkpt>
      <trkpt lat="48.44524" lon="2.66168">
        <ele>137</ele>
        <time>2017-02-12T13:40:28Z</time>
      </trkpt>
      <trkpt lat="48.44499" lon="2.66226">
        <ele>137</ele>
        <time>2017-02-12T13:41:06Z</time>
      </trkpt>
      <trkpt lat="48.44474" lon="2.66285">
        <ele>137</ele>
        <time>2017-02-12T13:41:43Z</time>
      </trkpt>
      <trkpt lat="48.44451" lon="2.66343">
        <ele>137</ele>
        <time>2017-02-12T13:42:21Z</time>
      </trkpt>
      <trkpt lat="48.44427" lon="2.66401">
        <ele>137</ele>
        <time>2017-02-12T13:43:01Z</time>
      </trkpt>
      <trkpt lat="48.44406" lon="2.66462">
        <ele>137</ele>
        <time>2017-02-12T13:43:33Z</time>
      </trkpt>
      <trkpt lat="48.44399" lon="2.66529">
        <ele>138</ele>
        <time>2017-02-12T13:44:08Z</time>
      </trkpt>
      <trkpt lat="48.44394" lon="2.66599">
        <ele>138</ele>
        <time>2017-02-12T13:44:42Z</time>
      </trkpt>
      <trkpt lat="48.44396" lon="2.66667">
        <ele>138</ele>
        <time>2017-02-12T13:45:20Z</time>
      </trkpt>
      <trkpt lat="48.4439" lon="2.66737">
        <ele>138</ele>
        <time>2017-02-12T13:45:53Z</time>
      </trkpt>
      <trkpt lat="48.44385" lon="2.66771">
        <ele>138</ele>
        <time>2017-02-12T13:46:09Z</time>
      </trkpt>
      <trkpt lat="48.44386" lon="2.6684">
        <ele>139</ele>
        <time>2017-02-12T13:46:54Z</time>
      </trkpt>
      <trkpt lat="48.4438" lon="2.66908">
        <ele>139</ele>
        <time>2017-02-12T13:47:24Z</time>
      </trkpt>
      <trkpt lat="48.44373" lon="2.66941">
        <ele>140</ele>
        <time>2017-02-12T13:48:37Z</time>
      </trkpt>
      <trkpt lat="48.44374" lon="2.66976">
        <ele>139</ele>
        <time>2017-02-12T13:48:58Z</time>
      </trkpt>
      <trkpt lat="48.44358" lon="2.6704">
        <ele>137</ele>
        <time>2017-02-12T13:49:47Z</time>
      </trkpt>
      <trkpt lat="48.44361" lon="2.67074">
        <ele>137</ele>
        <time>2017-02-12T13:50:03Z</time>
      </trkpt>
      <trkpt lat="48.44376" lon="2.67138">
        <ele>137</ele>
        <time>2017-02-12T13:50:51Z</time>
      </trkpt>
      <trkpt lat="48.44366" lon="2.67169">
        <ele>137</ele>
        <time>2017-02-12T13:51:34Z</time>
      </trkpt>
      <trkpt lat="48.44359" lon="2.67201">
        <ele>137</ele>
        <time>2017-02-12T13:51:54Z</time>
      </trkpt>
      <trkpt lat="48.44348" lon="2.67231">
        <ele>137</ele>
        <time>2017-02-12T13:52:29Z</time>
      </trkpt>
      <trkpt lat="48.44327" lon="2.67247">
        <ele>137</ele>
        <time>2017-02-12T13:52:59Z</time>
      </trkpt>
      <trkpt lat="48.44318" lon="2.67316">
        <ele>137</ele>
        <time>2017-02-12T13:53:41Z</time>
      </trkpt>
      <trkpt lat="48.44304" lon="2.67343">
        <ele>137</ele>
        <time>2017-02-12T13:53:57Z</time>
      </trkpt>
      <trkpt lat="48.44299" lon="2.67376">
        <ele>137</ele>
        <time>2017-02-12T13:54:18Z</time>
      </trkpt>
      <trkpt lat="48.44271" lon="2.67431">
        <ele>135</ele>
        <time>2017-02-12T13:54:59Z</time>
      </trkpt>
      <trkpt lat="48.44272" lon="2.67465">
        <ele>135</ele>
        <time>2017-02-12T13:55:32Z</time>
      </trkpt>
      <trkpt lat="48.44289" lon="2.67497">
        <ele>137</ele>
        <time>2017-02-12T13:56:32Z</time>
      </trkpt>
      <trkpt lat="48.44292" lon="2.67531">
        <ele>137</ele>
        <time>2017-02-12T13:56:55Z</time>
      </trkpt>
      <trkpt lat="48.44292" lon="2.67565">
        <ele>138</ele>
        <time>2017-02-12T13:57:19Z</time>
      </trkpt>
      <trkpt lat="48.44294" lon="2.676">
        <ele>137</ele>
        <time>2017-02-12T13:57:55Z</time>
      </trkpt>
      <trkpt lat="48.44302" lon="2.67632">
        <ele>136</ele>
        <time>2017-02-12T13:58:20Z</time>
      </trkpt>
      <trkpt lat="48.44284" lon="2.67653">
        <ele>136</ele>
        <time>2017-02-12T13:59:07Z</time>
      </trkpt>
      <trkpt lat="48.44252" lon="2.67714">
        <ele>125</ele>
        <time>2017-02-12T14:07:26Z</time>
      </trkpt>
      <trkpt lat="48.44249" lon="2.67749">
        <ele>126</ele>
        <time>2017-02-12T14:08:18Z</time>
      </trkpt>
      <trkpt lat="48.44257" lon="2.67781">
        <ele>126</ele>
        <time>2017-02-12T14:08:51Z</time>
      </trkpt>
      <trkpt lat="48.44272" lon="2.67806">
        <ele>126</ele>
        <time>2017-02-12T14:09:20Z</time>
      </trkpt>
      <trkpt lat="48.44274" lon="2.6784">
        <ele>126</ele>
        <time>2017-02-12T14:09:45Z</time>
      </trkpt>
      <trkpt lat="48.44257" lon="2.67863">
        <ele>126</ele>
        <time>2017-02-12T14:10:21Z</time>
      </trkpt>
      <trkpt lat="48.44237" lon="2.67878">
        <ele>126</ele>
        <time>2017-02-12T14:11:15Z</time>
      </trkpt>
      <trkpt lat="48.44214" lon="2.67883">
        <ele>125</ele>
        <time>2017-02-12T14:12:18Z</time>
      </trkpt>
      <trkpt lat="48.44212" lon="2.67918">
        <ele>126</ele>
        <time>2017-02-12T14:13:10Z</time>
      </trkpt>
      <trkpt lat="48.44213" lon="2.67953">
        <ele>126</ele>
        <time>2017-02-12T14:13:43Z</time>
      </trkpt>
      <trkpt lat="48.44219" lon="2.67987">
        <ele>127</ele>
        <time>2017-02-12T14:14:45Z</time>
      </trkpt>
      <trkpt lat="48.44224" lon="2.6802">
        <ele>126</ele>
        <time>2017-02-12T14:15:28Z</time>
      </trkpt>
      <trkpt lat="48.4422" lon="2.68054">
        <ele>125</ele>
        <time>2017-02-12T14:16:22Z</time>
      </trkpt>
      <trkpt lat="48.44225" lon="2.68088">
        <ele>125</ele>
        <time>2017-02-12T14:16:53Z</time>
      </trkpt>
      <trkpt lat="48.44211" lon="2.68116">
        <ele>121</ele>
        <time>2017-02-12T14:18:07Z</time>
      </trkpt>
      <trkpt lat="48.44194" lon="2.68138">
        <ele>121</ele>
        <time>2017-02-12T14:18:55Z</time>
      </trkpt>
      <trkpt lat="48.44179" lon="2.68163">
        <ele>121</ele>
        <time>2017-02-12T14:19:46Z</time>
      </trkpt>
      <trkpt lat="48.44192" lon="2.68192">
        <ele>122</ele>
        <time>2017-02-12T14:21:29Z</time>
      </trkpt>
      <trkpt lat="48.44182" lon="2.68195">
        <ele>128</ele>
        <time>2017-02-12T14:24:24Z</time>
      </trkpt>
      <trkpt lat="48.44165" lon="2.6822">
        <ele>122</ele>
        <time>2017-02-12T14:26:57Z</time>
      </trkpt>
      <trkpt lat="48.44147" lon="2.68243">
        <ele>120</ele>
        <time>2017-02-12T14:27:22Z</time>
      </trkpt>
      <trkpt lat="48.44124" lon="2.68252">
        <ele>114</ele>
        <time>2017-02-12T14:28:30Z</time>
      </trkpt>
      <trkpt lat="48.44111" lon="2.68281">
        <ele>109</ele>
        <time>2017-02-12T14:29:17Z</time>
      </trkpt>
      <trkpt lat="48.44095" lon="2.68306">
        <ele>110</ele>
        <time>2017-02-12T14:29:42Z</time>
      </trkpt>
      <trkpt lat="48.44096" lon="2.68341">
        <ele>109</ele>
        <time>2017-02-12T14:30:14Z</time>
      </trkpt>
      <trkpt lat="48.44101" lon="2.68376">
        <ele>109</ele>
        <time>2017-02-12T14:30:45Z</time>
      </trkpt>
      <trkpt lat="48.44103" lon="2.6841">
        <ele>109</ele>
        <time>2017-02-12T14:31:29Z</time>
      </trkpt>
      <trkpt lat="48.44121" lon="2.68431">
        <ele>108</ele>
        <time>2017-02-12T14:32:15Z</time>
      </trkpt>
      <trkpt lat="48.44134" lon="2.68459">
        <ele>108</ele>
        <time>2017-02-12T14:32:38Z</time>
      </trkpt>
      <trkpt lat="48.44139" lon="2.68493">
        <ele>107</ele>
        <time>2017-02-12T14:33:02Z</time>
      </trkpt>
      <trkpt lat="48.44158" lon="2.6851">
        <ele>105</ele>
        <time>2017-02-12T14:34:55Z</time>
      </trkpt>
      <trkpt lat="48.44148" lon="2.68541">
        <ele>98</ele>
        <time>2017-02-12T14:36:22Z</time>
      </trkpt>
      <trkpt lat="48.44137" lon="2.68574">
        <ele>99</ele>
        <time>2017-02-12T14:37:01Z</time>
      </trkpt>
      <trkpt lat="48.44132" lon="2.68611">
        <ele>100</ele>
        <time>2017-02-12T14:37:24Z</time>
      </trkpt>
      <trkpt lat="48.44113" lon="2.6863">
        <ele>99</ele>
        <time>2017-02-12T14:38:00Z</time>
      </trkpt>
      <trkpt lat="48.44092" lon="2.68642">
        <ele>97</ele>
        <time>2017-02-12T14:38:24Z</time>
      </trkpt>
      <trkpt lat="48.44054" lon="2.68682">
        <ele>95</ele>
        <time>2017-02-12T14:39:00Z</time>
      </trkpt>
      <trkpt lat="48.44032" lon="2.68697">
        <ele>93</ele>
        <time>2017-02-12T14:39:24Z</time>
      </trkpt>
      <trkpt lat="48.44009" lon="2.68704">
        <ele>92</ele>
        <time>2017-02-12T14:39:47Z</time>
      </trkpt>
      <trkpt lat="48.43987" lon="2.6872">
        <ele>90</ele>
        <time>2017-02-12T14:40:09Z</time>
      </trkpt>
      <trkpt lat="48.43988" lon="2.68755">
        <ele>87</ele>
        <time>2017-02-12T14:41:21Z</time>
      </trkpt>
      <trkpt lat="48.43986" lon="2.68789">
        <ele>81</ele>
        <time>2017-02-12T14:44:41Z</time>
      </trkpt>
      <trkpt lat="48.43972" lon="2.68815">
        <ele>81</ele>
        <time>2017-02-12T14:45:00Z</time>
      </trkpt>
      <trkpt lat="48.43953" lon="2.68837">
        <ele>81</ele>
        <time>2017-02-12T14:45:27Z</time>
      </trkpt>
      <trkpt lat="48.43942" lon="2.68867">
        <ele>81</ele>
        <time>2017-02-12T14:45:52Z</time>
      </trkpt>
      <trkpt lat="48.43951" lon="2.6892">
        <ele>82</ele>
        <time>2017-02-12T14:46:21Z</time>
      </trkpt>
      <trkpt lat="48.43949" lon="2.68954">
        <ele>82</ele>
        <time>2017-02-12T14:46:34Z</time>
      </trkpt>
      <trkpt lat="48.43966" lon="2.68976">
        <ele>83</ele>
        <time>2017-02-12T14:46:56Z</time>
      </trkpt>
      <trkpt lat="48.43989" lon="2.68977">
        <ele>83</ele>
        <time>2017-02-12T14:47:12Z</time>
      </trkpt>
      <trkpt lat="48.44013" lon="2.6897">
        <ele>84</ele>
        <time>2017-02-12T14:47:32Z</time>
      </trkpt>
      <trkpt lat="48.4403" lon="2.68992">
        <ele>84</ele>
        <time>2017-02-12T14:47:55Z</time>
      </trkpt>
      <trkpt lat="48.44026" lon="2.69027">
        <ele>85</ele>
        <time>2017-02-12T14:48:27Z</time>
      </trkpt>
      <trkpt lat="48.44004" lon="2.69035">
        <ele>85</ele>
        <time>2017-02-12T14:48:52Z</time>
      </trkpt>
      <trkpt lat="48.44008" lon="2.69069">
        <ele>85</ele>
        <time>2017-02-12T14:49:44Z</time>
      </trkpt>
      <trkpt lat="48.43997" lon="2.69099">
        <ele>84</ele>
        <time>2017-02-12T14:50:09Z</time>
      </trkpt>
      <trkpt lat="48.43955" lon="2.69132">
        <ele>85</ele>
        <time>2017-02-12T14:50:59Z</time>
      </trkpt>
      <trkpt lat="48.43937" lon="2.69153">
        <ele>86</ele>
        <time>2017-02-12T14:51:24Z</time>
      </trkpt>
      <trkpt lat="48.43933" lon="2.69188">
        <ele>87</ele>
        <time>2017-02-12T14:51:51Z</time>
      </trkpt>
      <trkpt lat="48.43937" lon="2.69222">
        <ele>90</ele>
        <time>2017-02-12T14:52:30Z</time>
      </trkpt>
      <trkpt lat="48.43938" lon="2.69257">
        <ele>93</ele>
        <time>2017-02-12T14:53:04Z</time>
      </trkpt>
      <trkpt lat="48.43928" lon="2.69288">
        <ele>94</ele>
        <time>2017-02-12T14:53:28Z</time>
      </trkpt>
      <trkpt lat="48.43912" lon="2.69313">
        <ele>96</ele>
        <time>2017-02-12T14:53:53Z</time>
      </trkpt>
      <trkpt lat="48.43902" lon="2.69345">
        <ele>99</ele>
        <time>2017-02-12T14:54:28Z</time>
      </trkpt>
      <trkpt lat="48.43902" lon="2.69379">
        <ele>100</ele>
        <time>2017-02-12T14:55:02Z</time>
      </trkpt>
      <trkpt lat="48.4388" lon="2.69389">
        <ele>101</ele>
        <time>2017-02-12T14:55:36Z</time>
      </trkpt>
      <trkpt lat="48.43875" lon="2.69423">
        <ele>102</ele>
        <time>2017-02-12T14:56:14Z</time>
      </trkpt>
      <trkpt lat="48.4389" lon="2.6945">
        <ele>105</ele>
        <time>2017-02-12T14:57:20Z</time>
      </trkpt>
      <trkpt lat="48.43898" lon="2.69481">
        <ele>106</ele>
        <time>2017-02-12T14:57:48Z</time>
      </trkpt>
      <trkpt lat="48.43895" lon="2.69515">
        <ele>105</ele>
        <time>2017-02-12T14:58:13Z</time>
      </trkpt>
      <trkpt lat="48.4389" lon="2.69548">
        <ele>105</ele>
        <time>2017-02-12T14:58:41Z</time>
      </trkpt>
      <trkpt lat="48.43883" lon="2.69583">
        <ele>106</ele>
        <time>2017-02-12T14:59:14Z</time>
      </trkpt>
      <trkpt lat="48.43869" lon="2.6961">
        <ele>106</ele>
        <time>2017-02-12T14:59:41Z</time>
      </trkpt>
      <trkpt lat="48.43868" lon="2.69645">
        <ele>106</ele>
        <time>2017-02-12T15:00:07Z</time>
      </trkpt>
      <trkpt lat="48.43859" lon="2.69677">
        <ele>107</ele>
        <time>2017-02-12T15:00:32Z</time>
      </trkpt>
      <trkpt lat="48.43859" lon="2.69712">
        <ele>108</ele>
        <time>2017-02-12T15:01:08Z</time>
      </trkpt>
      <trkpt lat="48.43834" lon="2.6977">
        <ele>108</ele>
        <time>2017-02-12T15:01:55Z</time>
      </trkpt>
      <trkpt lat="48.43835" lon="2.69805">
        <ele>109</ele>
        <time>2017-02-12T15:02:22Z</time>
      </trkpt>
      <trkpt lat="48.43855" lon="2.69822">
        <ele>109</ele>
        <time>2017-02-12T15:02:45Z</time>
      </trkpt>
      <trkpt lat="48.43861" lon="2.69891">
        <ele>110</ele>
        <time>2017-02-12T15:03:34Z</time>
      </trkpt>
      <trkpt lat="48.43847" lon="2.69919">
        <ele>111</ele>
        <time>2017-02-12T15:04:05Z</time>
      </trkpt>
      <trkpt lat="48.43829" lon="2.6994">
        <ele>113</ele>
        <time>2017-02-12T15:04:40Z</time>
      </trkpt>
      <trkpt lat="48.43815" lon="2.69969">
        <ele>114</ele>
        <time>2017-02-12T15:05:17Z</time>
      </trkpt>
      <trkpt lat="48.438" lon="2.69996">
        <ele>115</ele>
        <time>2017-02-12T15:05:49Z</time>
      </trkpt>
      <trkpt lat="48.43787" lon="2.70024">
        <ele>119</ele>
        <time>2017-02-12T15:06:35Z</time>
      </trkpt>
      <trkpt lat="48.43764" lon="2.70027">
        <ele>122</ele>
        <time>2017-02-12T15:07:21Z</time>
      </trkpt>
      <trkpt lat="48.43749" lon="2.70052">
        <ele>125</ele>
        <time>2017-02-12T15:08:09Z</time>
      </trkpt>
      <trkpt lat="48.43739" lon="2.70084">
        <ele>127</ele>
        <time>2017-02-12T15:08:41Z</time>
      </trkpt>
      <trkpt lat="48.43738" lon="2.70118">
        <ele>129</ele>
        <time>2017-02-12T15:09:10Z</time>
      </trkpt>
      <trkpt lat="48.43745" lon="2.70151">
        <ele>129</ele>
        <time>2017-02-12T15:09:44Z</time>
      </trkpt>
      <trkpt lat="48.43745" lon="2.70185">
        <ele>130</ele>
        <time>2017-02-12T15:10:08Z</time>
      </trkpt>
      <trkpt lat="48.43735" lon="2.70217">
        <ele>130</ele>
        <time>2017-02-12T15:10:39Z</time>
      </trkpt>
      <trkpt lat="48.43731" lon="2.7025">
        <ele>131</ele>
        <time>2017-02-12T15:11:14Z</time>
      </trkpt>
      <trkpt lat="48.43708" lon="2.70254">
        <ele>133</ele>
        <time>2017-02-12T15:11:47Z</time>
      </trkpt>
      <trkpt lat="48.43686" lon="2.70242">
        <ele>134</ele>
        <time>2017-02-12T15:12:15Z</time>
      </trkpt>
      <trkpt lat="48.43664" lon="2.70233">
        <ele>131</ele>
        <time>2017-02-12T15:13:56Z</time>
      </trkpt>
      <trkpt lat="48.43684" lon="2.70217">
        <ele>131</ele>
        <time>2017-02-12T15:14:32Z</time>
      </trkpt>
      <trkpt lat="48.43663" lon="2.70203">
        <ele>123</ele>
        <time>2017-02-12T15:15:50Z</time>
      </trkpt>
      <trkpt lat="48.4366" lon="2.70168">
        <ele>121</ele>
        <time>2017-02-12T15:16:57Z</time>
      </trkpt>
      <trkpt lat="48.43651" lon="2.702">
        <ele>123</ele>
        <time>2017-02-12T15:18:29Z</time>
      </trkpt>
      <trkpt lat="48.43638" lon="2.70229">
        <ele>121</ele>
        <time>2017-02-12T15:19:02Z</time>
      </trkpt>
      <trkpt lat="48.43618" lon="2.70291">
        <ele>120</ele>
        <time>2017-02-12T15:19:54Z</time>
      </trkpt>
      <trkpt lat="48.43608" lon="2.70322">
        <ele>121</ele>
        <time>2017-02-12T15:20:16Z</time>
      </trkpt>
      <trkpt lat="48.43608" lon="2.70356">
        <ele>121</ele>
        <time>2017-02-12T15:20:44Z</time>
      </trkpt>
      <trkpt lat="48.43597" lon="2.70386">
        <ele>121</ele>
        <time>2017-02-12T15:21:07Z</time>
      </trkpt>
      <trkpt lat="48.4359" lon="2.70455">
        <ele>122</ele>
        <time>2017-02-12T15:22:02Z</time>
      </trkpt>
      <trkpt lat="48.43568" lon="2.70514">
        <ele>124</ele>
        <time>2017-02-12T15:22:52Z</time>
      </trkpt>
      <trkpt lat="48.43556" lon="2.70559">
        <ele>125</ele>
        <time>2017-02-12T15:23:35Z</time>
      </trkpt>
      <trkpt lat="48.4355" lon="2.70592">
        <ele>125</ele>
        <time>2017-02-12T15:24:19Z</time>
      </trkpt>
      <trkpt lat="48.43548" lon="2.70632">
        <ele>125</ele>
        <time>2017-02-12T15:24:41Z</time>
      </trkpt>
      <trkpt lat="48.43536" lon="2.70699">
        <ele>124</ele>
        <time>2017-02-12T15:25:20Z</time>
      </trkpt>
      <trkpt lat="48.43531" lon="2.70732">
        <ele>124</ele>
        <time>2017-02-12T15:25:37Z</time>
      </trkpt>
      <trkpt lat="48.4352" lon="2.70762">
        <ele>122</ele>
        <time>2017-02-12T15:25:55Z</time>
      </trkpt>
      <trkpt lat="48.43524" lon="2.70796">
        <ele>121</ele>
        <time>2017-02-12T15:26:13Z</time>
      </trkpt>
      <trkpt lat="48.43513" lon="2.70827">
        <ele>121</ele>
        <time>2017-02-12T15:26:32Z</time>
      </trkpt>
      <trkpt lat="48.43504" lon="2.70894">
        <ele>118</ele>
        <time>2017-02-12T15:27:12Z</time>
      </trkpt>
      <trkpt lat="48.43505" lon="2.70929">
        <ele>117</ele>
        <time>2017-02-12T15:27:28Z</time>
      </trkpt>
      <trkpt lat="48.43496" lon="2.70961">
        <ele>116</ele>
        <time>2017-02-12T15:27:55Z</time>
      </trkpt>
      <trkpt lat="48.43486" lon="2.71029">
        <ele>115</ele>
        <time>2017-02-12T15:28:27Z</time>
      </trkpt>
      <trkpt lat="48.43477" lon="2.71061">
        <ele>114</ele>
        <time>2017-02-12T15:28:42Z</time>
      </trkpt>
      <trkpt lat="48.43465" lon="2.71128">
        <ele>113</ele>
        <time>2017-02-12T15:29:16Z</time>
      </trkpt>
      <trkpt lat="48.43456" lon="2.71197">
        <ele>112</ele>
        <time>2017-02-12T15:29:56Z</time>
      </trkpt>
      <trkpt lat="48.43447" lon="2.71265">
        <ele>113</ele>
        <time>2017-02-12T15:30:29Z</time>
      </trkpt>
      <trkpt lat="48.43443" lon="2.713">
        <ele>113</ele>
        <time>2017-02-12T15:30:46Z</time>
      </trkpt>
      <trkpt lat="48.43429" lon="2.71365">
        <ele>113</ele>
        <time>2017-02-12T15:31:59Z</time>
      </trkpt>
      <trkpt lat="48.43426" lon="2.714">
        <ele>113</ele>
        <time>2017-02-12T15:32:32Z</time>
      </trkpt>
      <trkpt lat="48.43418" lon="2.71468">
        <ele>112</ele>
        <time>2017-02-12T15:33:19Z</time>
      </trkpt>
      <trkpt lat="48.43407" lon="2.71535">
        <ele>112</ele>
        <time>2017-02-12T15:33:55Z</time>
      </trkpt>
      <trkpt lat="48.43398" lon="2.71605">
        <ele>111</ele>
        <time>2017-02-12T15:34:40Z</time>
      </trkpt>
      <trkpt lat="48.43388" lon="2.71673">
        <ele>110</ele>
        <time>2017-02-12T15:35:20Z</time>
      </trkpt>
      <trkpt lat="48.43378" lon="2.71741">
        <ele>110</ele>
        <time>2017-02-12T15:35:58Z</time>
      </trkpt>
      <trkpt lat="48.43369" lon="2.7181">
        <ele>109</ele>
        <time>2017-02-12T15:36:30Z</time>
      </trkpt>
      <trkpt lat="48.43361" lon="2.71876">
        <ele>109</ele>
        <time>2017-02-12T15:37:04Z</time>
      </trkpt>
      <trkpt lat="48.43353" lon="2.7191">
        <ele>109</ele>
        <time>2017-02-12T15:37:22Z</time>
      </trkpt>
      <trkpt lat="48.43348" lon="2.71981">
        <ele>109</ele>
        <time>2017-02-12T15:38:04Z</time>
      </trkpt>
      <trkpt lat="48.43344" lon="2.72016">
        <ele>109</ele>
        <time>2017-02-12T15:38:24Z</time>
      </trkpt>
      <trkpt lat="48.43335" lon="2.72048">
        <ele>110</ele>
        <time>2017-02-12T15:38:39Z</time>
      </trkpt>
      <trkpt lat="48.43334" lon="2.72083">
        <ele>110</ele>
        <time>2017-02-12T15:39:02Z</time>
      </trkpt>
      <trkpt lat="48.43321" lon="2.72149">
        <ele>111</ele>
        <time>2017-02-12T15:39:52Z</time>
      </trkpt>
      <trkpt lat="48.43301" lon="2.72211">
        <ele>112</ele>
        <time>2017-02-12T15:40:35Z</time>
      </trkpt>
      <trkpt lat="48.43284" lon="2.72274">
        <ele>113</ele>
        <time>2017-02-12T15:41:17Z</time>
      </trkpt>
      <trkpt lat="48.43269" lon="2.72302">
        <ele>114</ele>
        <time>2017-02-12T15:41:30Z</time>
      </trkpt>
      <trkpt lat="48.4325" lon="2.72365">
        <ele>114</ele>
        <time>2017-02-12T15:42:04Z</time>
      </trkpt>
      <trkpt lat="48.43237" lon="2.72393">
        <ele>115</ele>
        <time>2017-02-12T15:42:23Z</time>
      </trkpt>
      <trkpt lat="48.43232" lon="2.72427">
        <ele>114</ele>
        <time>2017-02-12T15:42:38Z</time>
      </trkpt>
      <trkpt lat="48.43209" lon="2.72488">
        <ele>114</ele>
        <time>2017-02-12T15:43:17Z</time>
      </trkpt>
      <trkpt lat="48.43198" lon="2.7252">
        <ele>113</ele>
        <time>2017-02-12T15:43:40Z</time>
      </trkpt>
      <trkpt lat="48.43177" lon="2.72535">
        <ele>112</ele>
        <time>2017-02-12T15:44:17Z</time>
      </trkpt>
      <trkpt lat="48.43131" lon="2.72542">
        <ele>113</ele>
        <time>2017-02-12T15:45:02Z</time>
      </trkpt>
      <trkpt lat="48.43086" lon="2.72556">
        <ele>112</ele>
        <time>2017-02-12T15:45:43Z</time>
      </trkpt>
      <trkpt lat="48.43063" lon="2.72557">
        <ele>113</ele>
        <time>2017-02-12T15:46:10Z</time>
      </trkpt>
      <trkpt lat="48.4304" lon="2.72565">
        <ele>113</ele>
        <time>2017-02-12T15:46:27Z</time>
      </trkpt>
      <trkpt lat="48.43017" lon="2.72565">
        <ele>113</ele>
        <time>2017-02-12T15:46:56Z</time>
      </trkpt>
      <trkpt lat="48.42999" lon="2.72544">
        <ele>113</ele>
        <time>2017-02-12T15:47:15Z</time>
      </trkpt>
      <trkpt lat="48.42969" lon="2.72528">
        <ele>114</ele>
        <time>2017-02-12T15:47:43Z</time>
      </trkpt>
      <trkpt lat="48.42951" lon="2.72507">
        <ele>114</ele>
        <time>2017-02-12T15:47:58Z</time>
      </trkpt>
      <trkpt lat="48.42923" lon="2.72452">
        <ele>114</ele>
        <time>2017-02-12T15:48:40Z</time>
      </trkpt>
      <trkpt lat="48.42897" lon="2.72396">
        <ele>115</ele>
        <time>2017-02-12T15:49:16Z</time>
      </trkpt>
      <trkpt lat="48.4288" lon="2.72331">
        <ele>115</ele>
        <time>2017-02-12T15:49:59Z</time>
      </trkpt>
      <trkpt lat="48.42864" lon="2.72266">
        <ele>115</ele>
        <time>2017-02-12T15:50:47Z</time>
      </trkpt>
      <trkpt lat="48.42851" lon="2.72199">
        <ele>116</ele>
        <time>2017-02-12T15:51:20Z</time>
      </trkpt>
      <trkpt lat="48.42834" lon="2.72135">
        <ele>117</ele>
        <time>2017-02-12T15:52:04Z</time>
      </trkpt>
      <trkpt lat="48.42815" lon="2.72072">
        <ele>118</ele>
        <time>2017-02-12T15:52:41Z</time>
      </trkpt>
      <trkpt lat="48.42792" lon="2.72068">
        <ele>119</ele>
        <time>2017-02-12T15:53:04Z</time>
      </trkpt>
      <trkpt lat="48.42782" lon="2.72099">
        <ele>120</ele>
        <time>2017-02-12T15:53:48Z</time>
      </trkpt>
      <trkpt lat="48.42764" lon="2.72071">
        <ele>133</ele>
        <time>2017-02-12T15:54:54Z</time>
      </trkpt>
      <trkpt lat="48.42757" lon="2.72039">
        <ele>135</ele>
        <time>2017-02-12T15:55:13Z</time>
      </trkpt>
      <trkpt lat="48.42753" lon="2.72004">
        <ele>135</ele>
        <time>2017-02-12T15:55:35Z</time>
      </trkpt>
      <trkpt lat="48.42707" lon="2.71999">
        <ele>136</ele>
        <time>2017-02-12T15:56:23Z</time>
      </trkpt>
      <trkpt lat="48.42684" lon="2.71996">
        <ele>136</ele>
        <time>2017-02-12T15:56:44Z</time>
      </trkpt>
      <trkpt lat="48.42661" lon="2.71986">
        <ele>136</ele>
        <time>2017-02-12T15:57:06Z</time>
      </trkpt>
      <trkpt lat="48.42651" lon="2.72017">
        <ele>135</ele>
        <time>2017-02-12T15:57:39Z</time>
      </trkpt>
      <trkpt lat="48.42629" lon="2.7208">
        <ele>134</ele>
        <time>2017-02-12T15:58:22Z</time>
      </trkpt>
      <trkpt lat="48.42606" lon="2.72086">
        <ele>134</ele>
        <time>2017-02-12T15:58:40Z</time>
      </trkpt>
      <trkpt lat="48.42584" lon="2.7208">
        <ele>134</ele>
        <time>2017-02-12T15:59:04Z</time>
      </trkpt>
      <trkpt lat="48.42564" lon="2.72078">
        <ele>132</ele>
        <time>2017-02-12T16:00:34Z</time>
      </trkpt>
      <trkpt lat="48.42544" lon="2.72094">
        <ele>131</ele>
        <time>2017-02-12T16:07:43Z</time>
      </trkpt>
      <trkpt lat="48.4253" lon="2.72121">
        <ele>131</ele>
        <time>2017-02-12T16:08:03Z</time>
      </trkpt>
      <trkpt lat="48.42507" lon="2.72112">
        <ele>129</ele>
        <time>2017-02-12T16:08:20Z</time>
      </trkpt>
      <trkpt lat="48.42485" lon="2.72129">
        <ele>128</ele>
        <time>2017-02-12T16:08:36Z</time>
      </trkpt>
      <trkpt lat="48.42464" lon="2.72112">
        <ele>127</ele>
        <time>2017-02-12T16:09:04Z</time>
      </trkpt>
      <trkpt lat="48.4245" lon="2.72045">
        <ele>127</ele>
        <time>2017-02-12T16:09:48Z</time>
      </trkpt>
      <trkpt lat="48.42447" lon="2.72011">
        <ele>126</ele>
        <time>2017-02-12T16:10:07Z</time>
      </trkpt>
      <trkpt lat="48.42439" lon="2.71979">
        <ele>126</ele>
        <time>2017-02-12T16:10:26Z</time>
      </trkpt>
      <trkpt lat="48.42395" lon="2.71954">
        <ele>128</ele>
        <time>2017-02-12T16:11:12Z</time>
      </trkpt>
      <trkpt lat="48.4238" lon="2.71929">
        <ele>128</ele>
        <time>2017-02-12T16:11:30Z</time>
      </trkpt>
      <trkpt lat="48.42357" lon="2.71932">
        <ele>129</ele>
        <time>2017-02-12T16:11:45Z</time>
      </trkpt>
      <trkpt lat="48.42345" lon="2.71901">
        <ele>129</ele>
        <time>2017-02-12T16:12:05Z</time>
      </trkpt>
      <trkpt lat="48.42314" lon="2.71885">
        <ele>130</ele>
        <time>2017-02-12T16:12:36Z</time>
      </trkpt>
      <trkpt lat="48.42292" lon="2.71878">
        <ele>130</ele>
        <time>2017-02-12T16:13:06Z</time>
      </trkpt>
      <trkpt lat="48.42252" lon="2.71912">
        <ele>131</ele>
        <time>2017-02-12T16:13:50Z</time>
      </trkpt>
      <trkpt lat="48.42212" lon="2.71878">
        <ele>133</ele>
        <time>2017-02-12T16:14:33Z</time>
      </trkpt>
      <trkpt lat="48.42189" lon="2.7187">
        <ele>134</ele>
        <time>2017-02-12T16:14:52Z</time>
      </trkpt>
      <trkpt lat="48.42169" lon="2.71853">
        <ele>135</ele>
        <time>2017-02-12T16:15:17Z</time>
      </trkpt>
      <trkpt lat="48.4215" lon="2.71871">
        <ele>135</ele>
        <time>2017-02-12T16:15:45Z</time>
      </trkpt>
      <trkpt lat="48.42149" lon="2.71905">
        <ele>135</ele>
        <time>2017-02-12T16:16:05Z</time>
      </trkpt>
      <trkpt lat="48.42138" lon="2.71937">
        <ele>136</ele>
        <time>2017-02-12T16:16:30Z</time>
      </trkpt>
      <trkpt lat="48.42119" lon="2.71955">
        <ele>136</ele>
        <time>2017-02-12T16:16:58Z</time>
      </trkpt>
      <trkpt lat="48.42093" lon="2.72013">
        <ele>135</ele>
        <time>2017-02-12T16:17:34Z</time>
      </trkpt>
      <trkpt lat="48.42086" lon="2.72046">
        <ele>135</ele>
        <time>2017-02-12T16:17:57Z</time>
      </trkpt>
      <trkpt lat="48.42063" lon="2.72054">
        <ele>134</ele>
        <time>2017-02-12T16:18:26Z</time>
      </trkpt>
      <trkpt lat="48.42049" lon="2.72081">
        <ele>134</ele>
        <time>2017-02-12T16:18:43Z</time>
      </trkpt>
      <trkpt lat="48.4204" lon="2.72113">
        <ele>134</ele>
        <time>2017-02-12T16:19:08Z</time>
      </trkpt>
      <trkpt lat="48.42005" lon="2.72159">
        <ele>134</ele>
        <time>2017-02-12T16:19:47Z</time>
      </trkpt>
      <trkpt lat="48.42009" lon="2.72193">
        <ele>135</ele>
        <time>2017-02-12T16:20:12Z</time>
      </trkpt>
      <trkpt lat="48.41996" lon="2.7222">
        <ele>135</ele>
        <time>2017-02-12T16:20:33Z</time>
      </trkpt>
      <trkpt lat="48.41994" lon="2.72255">
        <ele>135</ele>
        <time>2017-02-12T16:21:27Z</time>
      </trkpt>
      <trkpt lat="48.4199" lon="2.72288">
        <ele>134</ele>
        <time>2017-02-12T16:21:51Z</time>
      </trkpt>
      <trkpt lat="48.4198" lon="2.7232">
        <ele>133</ele>
        <time>2017-02-12T16:22:12Z</time>
      </trkpt>
      <trkpt lat="48.41964" lon="2.72348">
        <ele>132</ele>
        <time>2017-02-12T16:22:28Z</time>
      </trkpt>
      <trkpt lat="48.41953" lon="2.72378">
        <ele>131</ele>
        <time>2017-02-12T16:22:41Z</time>
      </trkpt>
      <trkpt lat="48.41946" lon="2.72446">
        <ele>129</ele>
        <time>2017-02-12T16:23:14Z</time>
      </trkpt>
      <trkpt lat="48.41946" lon="2.72515">
        <ele>128</ele>
        <time>2017-02-12T16:23:48Z</time>
      </trkpt>
      <trkpt lat="48.41938" lon="2.72547">
        <ele>126</ele>
        <time>2017-02-12T16:24:06Z</time>
      </trkpt>
      <trkpt lat="48.41918" lon="2.72522">
        <ele>125</ele>
        <time>2017-02-12T16:24:35Z</time>
      </trkpt>
      <trkpt lat="48.41895" lon="2.72514">
        <ele>121</ele>
        <time>2017-02-12T16:25:13Z</time>
      </trkpt>
      <trkpt lat="48.41877" lon="2.72494">
        <ele>106</ele>
        <time>2017-02-12T16:26:19Z</time>
      </trkpt>
      <trkpt lat="48.41831" lon="2.72491">
        <ele>99</ele>
        <time>2017-02-12T16:26:53Z</time>
      </trkpt>
      <trkpt lat="48.41786" lon="2.7249">
        <ele>97</ele>
        <time>2017-02-12T16:27:26Z</time>
      </trkpt>
      <trkpt lat="48.41742" lon="2.72508">
        <ele>93</ele>
        <time>2017-02-12T16:28:06Z</time>
      </trkpt>
      <trkpt lat="48.41723" lon="2.72531">
        <ele>91</ele>
        <time>2017-02-12T16:28:28Z</time>
      </trkpt>
      <trkpt lat="48.41699" lon="2.7253">
        <ele>89</ele>
        <time>2017-02-12T16:28:43Z</time>
      </trkpt>
      <trkpt lat="48.41685" lon="2.72557">
        <ele>87</ele>
        <time>2017-02-12T16:29:10Z</time>
      </trkpt>
      <trkpt lat="48.41671" lon="2.72624">
        <ele>83</ele>
        <time>2017-02-12T16:29:46Z</time>
      </trkpt>
      <trkpt lat="48.4166" lon="2.72654">
        <ele>81</ele>
        <time>2017-02-12T16:30:14Z</time>
      </trkpt>
      <trkpt lat="48.41639" lon="2.72669">
        <ele>78</ele>
        <time>2017-02-12T16:31:17Z</time>
      </trkpt>
    </trkseg>
  </trk>
</gpx>